0VA9 weather

Handy Strip
Gloucester Court House, Virginia, United States

Public forecast

Using degrees Fahrenheit for public forecast. Weather courtesy of forecast.io.

METAR (pilot weather report)

Closest report is Middle Peninsula Regional Airport, 15.5 nm (28.6 km) WNW. Retrieved 2019/07/21 08:35 UTC (14 minutes ago):

KFYJ 210835Z AUTO 22004KT 10SM CLR 26/24 A2990 RMK AO1 T02630240

TAF (pilot weather forecast)

Closest forecast is Newport News Williamsburg International Airport, 19.0 nm (35.3 km) S. Retrieved 2019/07/21 06:22 UTC (2 hours ago):

TAF KPHF 210520Z 2106/2206 24006KT P6SM SKC FM211600 24007KT P6SM SCT050 FM211900 23011KT P6SM SCT060 FM212300 24008KT P6SM SKC